sensor_id;sensor_type;location;lat;lon;timestamp;temperature;humidity
41722;DHT22;27407;24.142;-110.310;2023-07-09T00:01:45;42.50;77.50
41722;DHT22;27407;24.142;-110.310;2023-07-09T00:04:12;42.90;77.40
41722;DHT22;27407;24.142;-110.310;2023-07-09T00:06:40;43.20;77.00
41722;DHT22;27407;24.142;-110.310;2023-07-09T00:09:13;43.00;77.20
41722;DHT22;27407;24.142;-110.310;2023-07-09T00:11:41;42.80;77.30
41722;DHT22;27407;24.142;-110.310;2023-07-09T00:14:09;42.70;78.00
41722;DHT22;27407;24.142;-110.310;2023-07-09T00:16:37;42.80;78.30
41722;DHT22;27407;24.142;-110.310;2023-07-09T00:19:38;42.50;78.60
41722;DHT22;27407;24.142;-110.310;2023-07-09T00:21:57;42.40;78.60
41722;DHT22;27407;24.142;-110.310;2023-07-09T00:24:24;42.30;78.90
41722;DHT22;27407;24.142;-110.310;2023-07-09T00:26:51;42.30;79.10
41722;DHT22;27407;24.142;-110.310;2023-07-09T00:29:18;42.10;80.10
41722;DHT22;27407;24.142;-110.310;2023-07-09T00:31:45;42.30;79.30
41722;DHT22;27407;24.142;-110.310;2023-07-09T00:34:14;42.40;79.40
41722;DHT22;27407;24.142;-110.310;2023-07-09T00:36:42;42.00;79.80
41722;DHT22;27407;24.142;-110.310;2023-07-09T00:39:30;41.50;80.70
41722;DHT22;27407;24.142;-110.310;2023-07-09T00:41:56;41.00;81.90
41722;DHT22;27407;24.142;-110.310;2023-07-09T00:44:31;40.60;82.20
41722;DHT22;27407;24.142;-110.310;2023-07-09T00:49:39;41.00;81.80
41722;DHT22;27407;24.142;-110.310;2023-07-09T00:52:29;41.20;81.50
41722;DHT22;27407;24.142;-110.310;2023-07-09T00:55:03;41.10;81.50
41722;DHT22;27407;24.142;-110.310;2023-07-09T00:57:31;40.60;82.90
41722;DHT22;27407;24.142;-110.310;2023-07-09T01:00:03;40.20;83.60
41722;DHT22;27407;24.142;-110.310;2023-07-09T01:02:39;39.60;84.90
41722;DHT22;27407;24.142;-110.310;2023-07-09T01:05:10;39.70;85.10
41722;DHT22;27407;24.142;-110.310;2023-07-09T01:07:39;40.00;84.60
41722;DHT22;27407;24.142;-110.310;2023-07-09T01:10:07;39.80;84.90
41722;DHT22;27407;24.142;-110.310;2023-07-09T01:12:34;39.80;85.40
41722;DHT22;27407;24.142;-110.310;2023-07-09T01:15:00;39.70;85.20
41722;DHT22;27407;24.142;-110.310;2023-07-09T01:17:28;39.30;86.80
41722;DHT22;27407;24.142;-110.310;2023-07-09T01:19:56;39.40;86.50
41722;DHT22;27407;24.142;-110.310;2023-07-09T01:22:23;38.90;87.90
41722;DHT22;27407;24.142;-110.310;2023-07-09T01:24:54;38.90;88.10
41722;DHT22;27407;24.142;-110.310;2023-07-09T01:27:25;38.60;88.40
41722;DHT22;27407;24.142;-110.310;2023-07-09T01:29:53;38.30;89.30
41722;DHT22;27407;24.142;-110.310;2023-07-09T01:32:21;38.20;89.40
41722;DHT22;27407;24.142;-110.310;2023-07-09T01:34:51;38.00;89.90
41722;DHT22;27407;24.142;-110.310;2023-07-09T01:37:23;37.50;90.40
41722;DHT22;27407;24.142;-110.310;2023-07-09T01:39:51;37.10;91.00
41722;DHT22;27407;24.142;-110.310;2023-07-09T01:42:20;36.90;91.30
41722;DHT22;27407;24.142;-110.310;2023-07-09T01:44:51;36.50;91.80
41722;DHT22;27407;24.142;-110.310;2023-07-09T01:47:19;36.10;92.30
41722;DHT22;27407;24.142;-110.310;2023-07-09T01:49:46;35.90;92.70
41722;DHT22;27407;24.142;-110.310;2023-07-09T01:52:14;35.70;93.00
41722;DHT22;27407;24.142;-110.310;2023-07-09T01:54:42;35.70;93.20
41722;DHT22;27407;24.142;-110.310;2023-07-09T01:57:22;35.70;93.40
41722;DHT22;27407;24.142;-110.310;2023-07-09T01:59:53;35.30;93.80
41722;DHT22;27407;24.142;-110.310;2023-07-09T02:02:21;35.20;94.50
41722;DHT22;27407;24.142;-110.310;2023-07-09T02:04:50;35.10;95.20
41722;DHT22;27407;24.142;-110.310;2023-07-09T02:07:18;34.90;95.80
41722;DHT22;27407;24.142;-110.310;2023-07-09T02:09:45;34.60;96.60
41722;DHT22;27407;24.142;-110.310;2023-07-09T02:12:12;34.40;97.10
41722;DHT22;27407;24.142;-110.310;2023-07-09T02:14:40;34.70;97.70
41722;DHT22;27407;24.142;-110.310;2023-07-09T02:17:07;34.50;98.10
41722;DHT22;27407;24.142;-110.310;2023-07-09T02:19:34;34.40;98.50
41722;DHT22;27407;24.142;-110.310;2023-07-09T02:22:09;34.50;98.80
41722;DHT22;27407;24.142;-110.310;2023-07-09T02:24:36;34.60;99.10
41722;DHT22;27407;24.142;-110.310;2023-07-09T02:27:04;34.40;99.20
41722;DHT22;27407;24.142;-110.310;2023-07-09T02:29:32;34.30;99.90
41722;DHT22;27407;24.142;-110.310;2023-07-09T02:32:00;34.20;99.90
41722;DHT22;27407;24.142;-110.310;2023-07-09T02:34:28;34.20;99.90
41722;DHT22;27407;24.142;-110.310;2023-07-09T02:36:56;34.20;99.90
41722;DHT22;27407;24.142;-110.310;2023-07-09T02:39:23;34.10;99.90
41722;DHT22;27407;24.142;-110.310;2023-07-09T02:41:50;34.10;99.90
41722;DHT22;27407;24.142;-110.310;2023-07-09T02:44:17;34.10;99.90
41722;DHT22;27407;24.142;-110.310;2023-07-09T02:46:44;33.90;99.90
41722;DHT22;27407;24.142;-110.310;2023-07-09T02:49:12;33.90;99.90
41722;DHT22;27407;24.142;-110.310;2023-07-09T02:51:40;33.80;99.90
41722;DHT22;27407;24.142;-110.310;2023-07-09T02:54:07;33.60;99.90
41722;DHT22;27407;24.142;-110.310;2023-07-09T02:56:34;33.60;99.90
41722;DHT22;27407;24.142;-110.310;2023-07-09T02:59:01;33.50;99.90
41722;DHT22;27407;24.142;-110.310;2023-07-09T03:01:27;33.30;99.90
41722;DHT22;27407;24.142;-110.310;2023-07-09T03:03:55;33.30;99.90
41722;DHT22;27407;24.142;-110.310;2023-07-09T03:06:23;33.30;99.90
41722;DHT22;27407;24.142;-110.310;2023-07-09T03:08:50;33.30;99.90
41722;DHT22;27407;24.142;-110.310;2023-07-09T03:11:18;33.30;99.90
41722;DHT22;27407;24.142;-110.310;2023-07-09T03:13:46;33.60;99.90
41722;DHT22;27407;24.142;-110.310;2023-07-09T03:16:14;33.40;99.90
41722;DHT22;27407;24.142;-110.310;2023-07-09T03:18:41;33.30;99.90
41722;DHT22;27407;24.142;-110.310;2023-07-09T03:21:07;33.30;99.90
41722;DHT22;27407;24.142;-110.310;2023-07-09T03:23:41;33.10;99.90
41722;DHT22;27407;24.142;-110.310;2023-07-09T03:26:08;33.30;99.90
41722;DHT22;27407;24.142;-110.310;2023-07-09T03:28:35;33.10;99.90
41722;DHT22;27407;24.142;-110.310;2023-07-09T03:31:01;33.20;99.90
41722;DHT22;27407;24.142;-110.310;2023-07-09T03:33:28;33.20;99.90
41722;DHT22;27407;24.142;-110.310;2023-07-09T03:35:55;33.20;99.90
41722;DHT22;27407;24.142;-110.310;2023-07-09T03:38:22;33.10;99.90
41722;DHT22;27407;24.142;-110.310;2023-07-09T03:40:52;33.10;99.90
41722;DHT22;27407;24.142;-110.310;2023-07-09T03:43:20;33.20;99.90
41722;DHT22;27407;24.142;-110.310;2023-07-09T03:45:47;33.10;99.90
41722;DHT22;27407;24.142;-110.310;2023-07-09T03:48:16;33.00;99.90
41722;DHT22;27407;24.142;-110.310;2023-07-09T03:50:45;32.80;99.90
41722;DHT22;27407;24.142;-110.310;2023-07-09T03:53:12;32.60;99.90
41722;DHT22;27407;24.142;-110.310;2023-07-09T03:55:40;32.50;99.90
41722;DHT22;27407;24.142;-110.310;2023-07-09T03:58:07;32.60;99.90
41722;DHT22;27407;24.142;-110.310;2023-07-09T04:00:34;32.70;99.90
41722;DHT22;27407;24.142;-110.310;2023-07-09T04:03:01;32.70;99.90
41722;DHT22;27407;24.142;-110.310;2023-07-09T04:05:28;32.60;99.90
41722;DHT22;27407;24.142;-110.310;2023-07-09T04:07:54;32.60;99.90
41722;DHT22;27407;24.142;-110.310;2023-07-09T04:10:21;32.60;99.90
41722;DHT22;27407;24.142;-110.310;2023-07-09T04:12:48;32.60;99.90
41722;DHT22;27407;24.142;-110.310;2023-07-09T04:15:15;32.60;99.90
41722;DHT22;27407;24.142;-110.310;2023-07-09T04:17:41;32.60;99.90
41722;DHT22;27407;24.142;-110.310;2023-07-09T04:20:09;32.60;99.90
41722;DHT22;27407;24.142;-110.310;2023-07-09T04:22:36;32.60;99.90
41722;DHT22;27407;24.142;-110.310;2023-07-09T04:25:07;32.30;99.90
41722;DHT22;27407;24.142;-110.310;2023-07-09T04:27:36;32.30;99.90
41722;DHT22;27407;24.142;-110.310;2023-07-09T04:30:04;32.30;99.90
41722;DHT22;27407;24.142;-110.310;2023-07-09T04:32:31;32.30;99.90
41722;DHT22;27407;24.142;-110.310;2023-07-09T04:34:58;32.30;99.90
41722;DHT22;27407;24.142;-110.310;2023-07-09T04:37:24;32.20;99.90
41722;DHT22;27407;24.142;-110.310;2023-07-09T04:39:51;32.10;99.90
41722;DHT22;27407;24.142;-110.310;2023-07-09T04:42:18;32.20;99.90
41722;DHT22;27407;24.142;-110.310;2023-07-09T04:44:45;32.30;99.90
41722;DHT22;27407;24.142;-110.310;2023-07-09T04:47:12;32.20;99.90
41722;DHT22;27407;24.142;-110.310;2023-07-09T04:49:39;32.00;99.90
41722;DHT22;27407;24.142;-110.310;2023-07-09T04:52:06;32.00;99.90
41722;DHT22;27407;24.142;-110.310;2023-07-09T04:54:34;32.10;99.90
41722;DHT22;27407;24.142;-110.310;2023-07-09T04:57:00;32.20;99.90
41722;DHT22;27407;24.142;-110.310;2023-07-09T04:59:28;32.20;99.90
41722;DHT22;27407;24.142;-110.310;2023-07-09T05:01:54;32.20;99.90
41722;DHT22;27407;24.142;-110.310;2023-07-09T05:04:21;32.20;99.90
41722;DHT22;27407;24.142;-110.310;2023-07-09T05:06:47;32.00;99.90
41722;DHT22;27407;24.142;-110.310;2023-07-09T05:09:14;32.00;99.90
41722;DHT22;27407;24.142;-110.310;2023-07-09T05:11:41;32.00;99.90
41722;DHT22;27407;24.142;-110.310;2023-07-09T05:14:07;32.10;99.90
41722;DHT22;27407;24.142;-110.310;2023-07-09T05:16:34;32.10;99.90
41722;DHT22;27407;24.142;-110.310;2023-07-09T05:19:01;32.10;99.90
41722;DHT22;27407;24.142;-110.310;2023-07-09T05:21:27;31.90;99.90
41722;DHT22;27407;24.142;-110.310;2023-07-09T05:23:54;31.90;99.90
41722;DHT22;27407;24.142;-110.310;2023-07-09T05:26:21;31.90;99.90
41722;DHT22;27407;24.142;-110.310;2023-07-09T05:28:47;31.90;99.90
41722;DHT22;27407;24.142;-110.310;2023-07-09T05:31:14;32.00;99.90
41722;DHT22;27407;24.142;-110.310;2023-07-09T05:33:41;32.00;99.90
41722;DHT22;27407;24.142;-110.310;2023-07-09T05:36:09;32.10;99.90
41722;DHT22;27407;24.142;-110.310;2023-07-09T05:38:45;32.00;99.90
41722;DHT22;27407;24.142;-110.310;2023-07-09T05:41:13;32.00;99.90
41722;DHT22;27407;24.142;-110.310;2023-07-09T05:43:43;32.10;99.90
41722;DHT22;27407;24.142;-110.310;2023-07-09T05:46:13;32.20;99.90
41722;DHT22;27407;24.142;-110.310;2023-07-09T05:48:40;32.10;99.90
41722;DHT22;27407;24.142;-110.310;2023-07-09T05:51:07;32.10;99.90
41722;DHT22;27407;24.142;-110.310;2023-07-09T05:53:34;31.90;99.90
41722;DHT22;27407;24.142;-110.310;2023-07-09T05:56:01;31.80;99.90
41722;DHT22;27407;24.142;-110.310;2023-07-09T05:58:28;31.90;99.90
41722;DHT22;27407;24.142;-110.310;2023-07-09T06:00:55;31.80;99.90
41722;DHT22;27407;24.142;-110.310;2023-07-09T06:03:25;31.80;99.90
41722;DHT22;27407;24.142;-110.310;2023-07-09T06:05:52;31.70;99.90
41722;DHT22;27407;24.142;-110.310;2023-07-09T06:08:20;31.70;99.90
41722;DHT22;27407;24.142;-110.310;2023-07-09T06:10:58;31.80;99.90
41722;DHT22;27407;24.142;-110.310;2023-07-09T06:13:26;31.80;99.90
41722;DHT22;27407;24.142;-110.310;2023-07-09T06:15:54;31.80;99.90
41722;DHT22;27407;24.142;-110.310;2023-07-09T06:18:23;31.70;99.90
41722;DHT22;27407;24.142;-110.310;2023-07-09T06:20:51;31.80;99.90
41722;DHT22;27407;24.142;-110.310;2023-07-09T06:23:19;31.80;99.90
41722;DHT22;27407;24.142;-110.310;2023-07-09T06:25:46;31.80;99.90
41722;DHT22;27407;24.142;-110.310;2023-07-09T06:28:15;31.80;99.90
41722;DHT22;27407;24.142;-110.310;2023-07-09T06:30:42;31.90;99.90
41722;DHT22;27407;24.142;-110.310;2023-07-09T06:33:09;31.80;99.90
41722;DHT22;27407;24.142;-110.310;2023-07-09T06:35:36;31.70;99.90
41722;DHT22;27407;24.142;-110.310;2023-07-09T06:38:03;31.60;99.90
41722;DHT22;27407;24.142;-110.310;2023-07-09T06:40:30;31.60;99.90
41722;DHT22;27407;24.142;-110.310;2023-07-09T06:42:56;31.60;99.90
41722;DHT22;27407;24.142;-110.310;2023-07-09T06:45:24;31.60;99.90
41722;DHT22;27407;24.142;-110.310;2023-07-09T06:47:51;31.60;99.90
41722;DHT22;27407;24.142;-110.310;2023-07-09T06:50:17;31.60;99.90
41722;DHT22;27407;24.142;-110.310;2023-07-09T06:52:44;31.40;99.90
41722;DHT22;27407;24.142;-110.310;2023-07-09T06:55:10;31.40;99.90
41722;DHT22;27407;24.142;-110.310;2023-07-09T06:57:37;31.60;99.90
41722;DHT22;27407;24.142;-110.310;2023-07-09T07:00:04;31.60;99.90
41722;DHT22;27407;24.142;-110.310;2023-07-09T07:02:32;31.60;99.90
41722;DHT22;27407;24.142;-110.310;2023-07-09T07:04:59;31.60;99.90
41722;DHT22;27407;24.142;-110.310;2023-07-09T07:07:26;31.60;99.90
41722;DHT22;27407;24.142;-110.310;2023-07-09T07:09:52;31.50;99.90
41722;DHT22;27407;24.142;-110.310;2023-07-09T07:12:27;31.50;99.90
41722;DHT22;27407;24.142;-110.310;2023-07-09T07:14:54;31.50;99.90
41722;DHT22;27407;24.142;-110.310;2023-07-09T07:17:22;31.50;99.90
41722;DHT22;27407;24.142;-110.310;2023-07-09T07:19:50;31.50;99.90
41722;DHT22;27407;24.142;-110.310;2023-07-09T07:22:17;31.50;99.90
41722;DHT22;27407;24.142;-110.310;2023-07-09T07:24:44;31.50;99.90
41722;DHT22;27407;24.142;-110.310;2023-07-09T07:27:10;31.50;99.90
41722;DHT22;27407;24.142;-110.310;2023-07-09T07:29:37;31.40;99.90
41722;DHT22;27407;24.142;-110.310;2023-07-09T07:32:04;31.40;99.90
41722;DHT22;27407;24.142;-110.310;2023-07-09T07:34:31;31.30;99.90
41722;DHT22;27407;24.142;-110.310;2023-07-09T07:36:57;31.30;99.90
41722;DHT22;27407;24.142;-110.310;2023-07-09T07:39:24;31.30;99.90
41722;DHT22;27407;24.142;-110.310;2023-07-09T07:41:51;31.30;99.90
41722;DHT22;27407;24.142;-110.310;2023-07-09T07:44:18;31.40;99.90
41722;DHT22;27407;24.142;-110.310;2023-07-09T07:46:44;31.50;99.90
41722;DHT22;27407;24.142;-110.310;2023-07-09T07:49:11;31.50;99.90
41722;DHT22;27407;24.142;-110.310;2023-07-09T07:51:38;31.40;99.90
41722;DHT22;27407;24.142;-110.310;2023-07-09T07:54:05;31.50;99.90
41722;DHT22;27407;24.142;-110.310;2023-07-09T07:56:32;31.50;99.90
41722;DHT22;27407;24.142;-110.310;2023-07-09T07:58:59;31.50;99.90
41722;DHT22;27407;24.142;-110.310;2023-07-09T08:01:25;31.50;99.90
41722;DHT22;27407;24.142;-110.310;2023-07-09T08:03:52;31.50;99.90
41722;DHT22;27407;24.142;-110.310;2023-07-09T08:06:19;31.50;99.90
41722;DHT22;27407;24.142;-110.310;2023-07-09T08:08:46;31.40;99.90
41722;DHT22;27407;24.142;-110.310;2023-07-09T08:11:13;31.30;99.90
41722;DHT22;27407;24.142;-110.310;2023-07-09T08:13:40;31.10;99.90
41722;DHT22;27407;24.142;-110.310;2023-07-09T08:16:08;31.10;99.90
41722;DHT22;27407;24.142;-110.310;2023-07-09T08:18:34;31.00;99.90
41722;DHT22;27407;24.142;-110.310;2023-07-09T08:21:01;31.00;99.90
41722;DHT22;27407;24.142;-110.310;2023-07-09T08:23:28;31.00;99.90
41722;DHT22;27407;24.142;-110.310;2023-07-09T08:25:56;31.00;99.90
41722;DHT22;27407;24.142;-110.310;2023-07-09T08:28:23;31.00;99.90
41722;DHT22;27407;24.142;-110.310;2023-07-09T08:30:54;31.10;99.90
41722;DHT22;27407;24.142;-110.310;2023-07-09T08:33:23;31.10;99.90
41722;DHT22;27407;24.142;-110.310;2023-07-09T08:35:51;31.10;99.90
41722;DHT22;27407;24.142;-110.310;2023-07-09T08:38:18;31.10;99.90
41722;DHT22;27407;24.142;-110.310;2023-07-09T08:40:58;31.20;99.90
41722;DHT22;27407;24.142;-110.310;2023-07-09T08:43:42;31.30;99.90
41722;DHT22;27407;24.142;-110.310;2023-07-09T08:49:23;31.10;99.90
41722;DHT22;27407;24.142;-110.310;2023-07-09T08:51:54;31.10;99.90
41722;DHT22;27407;24.142;-110.310;2023-07-09T08:54:26;31.00;99.90
41722;DHT22;27407;24.142;-110.310;2023-07-09T08:56:55;31.10;99.90
41722;DHT22;27407;24.142;-110.310;2023-07-09T08:59:23;31.30;99.90
41722;DHT22;27407;24.142;-110.310;2023-07-09T09:01:53;31.30;99.90
41722;DHT22;27407;24.142;-110.310;2023-07-09T09:04:29;31.10;99.90
41722;DHT22;27407;24.142;-110.310;2023-07-09T09:10:05;31.00;99.90
41722;DHT22;27407;24.142;-110.310;2023-07-09T09:12:52;30.90;99.90
41722;DHT22;27407;24.142;-110.310;2023-07-09T09:15:24;30.80;99.90
41722;DHT22;27407;24.142;-110.310;2023-07-09T09:17:54;31.00;99.90
41722;DHT22;27407;24.142;-110.310;2023-07-09T09:20:23;31.10;99.90
41722;DHT22;27407;24.142;-110.310;2023-07-09T09:23:22;31.20;99.90
41722;DHT22;27407;24.142;-110.310;2023-07-09T09:25:56;31.30;99.90
41722;DHT22;27407;24.142;-110.310;2023-07-09T09:28:27;31.30;99.90
41722;DHT22;27407;24.142;-110.310;2023-07-09T09:30:54;31.30;99.90
41722;DHT22;27407;24.142;-110.310;2023-07-09T09:33:21;31.30;99.90
41722;DHT22;27407;24.142;-110.310;2023-07-09T09:35:47;31.40;99.90
41722;DHT22;27407;24.142;-110.310;2023-07-09T09:38:21;31.30;99.90
41722;DHT22;27407;24.142;-110.310;2023-07-09T09:40:49;31.30;99.90
41722;DHT22;27407;24.142;-110.310;2023-07-09T09:43:18;31.30;99.90
41722;DHT22;27407;24.142;-110.310;2023-07-09T09:45:50;31.10;99.90
41722;DHT22;27407;24.142;-110.310;2023-07-09T09:48:18;31.10;99.90
41722;DHT22;27407;24.142;-110.310;2023-07-09T09:50:46;31.00;99.90
41722;DHT22;27407;24.142;-110.310;2023-07-09T09:53:22;30.90;99.90
41722;DHT22;27407;24.142;-110.310;2023-07-09T09:55:52;30.80;99.90
41722;DHT22;27407;24.142;-110.310;2023-07-09T09:58:19;30.70;99.90
41722;DHT22;27407;24.142;-110.310;2023-07-09T10:00:55;30.50;99.90
41722;DHT22;27407;24.142;-110.310;2023-07-09T10:03:32;30.40;99.90
41722;DHT22;27407;24.142;-110.310;2023-07-09T10:06:03;30.50;99.90
41722;DHT22;27407;24.142;-110.310;2023-07-09T10:11:24;30.40;99.90
41722;DHT22;27407;24.142;-110.310;2023-07-09T10:13:56;30.50;99.90
41722;DHT22;27407;24.142;-110.310;2023-07-09T10:16:27;30.50;99.90
41722;DHT22;27407;24.142;-110.310;2023-07-09T10:19:17;30.50;99.90
41722;DHT22;27407;24.142;-110.310;2023-07-09T10:22:06;30.50;99.90
41722;DHT22;27407;24.142;-110.310;2023-07-09T10:27:17;30.20;99.90
41722;DHT22;27407;24.142;-110.310;2023-07-09T10:30:30;30.30;99.90
41722;DHT22;27407;24.142;-110.310;2023-07-09T10:40:57;30.50;99.90
41722;DHT22;27407;24.142;-110.310;2023-07-09T10:43:44;30.40;99.90
41722;DHT22;27407;24.142;-110.310;2023-07-09T10:46:27;30.30;99.90
41722;DHT22;27407;24.142;-110.310;2023-07-09T10:48:55;30.30;99.90
41722;DHT22;27407;24.142;-110.310;2023-07-09T10:51:31;30.40;99.90
41722;DHT22;27407;24.142;-110.310;2023-07-09T10:56:51;30.20;99.90
41722;DHT22;27407;24.142;-110.310;2023-07-09T10:59:33;30.10;99.90
41722;DHT22;27407;24.142;-110.310;2023-07-09T11:10:00;30.10;99.90
41722;DHT22;27407;24.142;-110.310;2023-07-09T11:12:36;30.10;99.90
41722;DHT22;27407;24.142;-110.310;2023-07-09T11:15:36;30.00;99.90
41722;DHT22;27407;24.142;-110.310;2023-07-09T11:18:10;30.00;99.90
41722;DHT22;27407;24.142;-110.310;2023-07-09T11:20:44;29.90;99.90
41722;DHT22;27407;24.142;-110.310;2023-07-09T11:23:23;29.90;99.90
41722;DHT22;27407;24.142;-110.310;2023-07-09T11:26:15;29.90;99.90
41722;DHT22;27407;24.142;-110.310;2023-07-09T11:28:52;29.70;99.90
41722;DHT22;27407;24.142;-110.310;2023-07-09T11:31:35;29.70;99.90
41722;DHT22;27407;24.142;-110.310;2023-07-09T11:34:09;29.70;99.90
41722;DHT22;27407;24.142;-110.310;2023-07-09T11:36:48;29.70;99.90
41722;DHT22;27407;24.142;-110.310;2023-07-09T11:41:56;29.60;99.90
41722;DHT22;27407;24.142;-110.310;2023-07-09T11:44:24;29.50;99.90
41722;DHT22;27407;24.142;-110.310;2023-07-09T11:47:22;29.60;99.90
41722;DHT22;27407;24.142;-110.310;2023-07-09T11:50:03;29.60;99.90
41722;DHT22;27407;24.142;-110.310;2023-07-09T11:52:42;29.60;99.90
41722;DHT22;27407;24.142;-110.310;2023-07-09T11:58:01;29.70;99.90
41722;DHT22;27407;24.142;-110.310;2023-07-09T12:00:37;29.70;99.90
41722;DHT22;27407;24.142;-110.310;2023-07-09T12:03:05;29.70;99.90
41722;DHT22;27407;24.142;-110.310;2023-07-09T12:05:32;29.60;99.90
41722;DHT22;27407;24.142;-110.310;2023-07-09T12:07:59;29.40;99.90
41722;DHT22;27407;24.142;-110.310;2023-07-09T12:10:34;29.40;99.90
41722;DHT22;27407;24.142;-110.310;2023-07-09T12:13:02;29.40;99.90
41722;DHT22;27407;24.142;-110.310;2023-07-09T12:15:30;29.40;99.90
41722;DHT22;27407;24.142;-110.310;2023-07-09T12:18:09;29.40;99.90
41722;DHT22;27407;24.142;-110.310;2023-07-09T12:20:36;29.40;99.90
41722;DHT22;27407;24.142;-110.310;2023-07-09T12:23:29;29.40;99.90
41722;DHT22;27407;24.142;-110.310;2023-07-09T12:26:00;29.30;99.90
41722;DHT22;27407;24.142;-110.310;2023-07-09T12:28:28;29.40;99.90
41722;DHT22;27407;24.142;-110.310;2023-07-09T12:30:55;29.30;99.90
41722;DHT22;27407;24.142;-110.310;2023-07-09T12:33:26;29.30;99.90
41722;DHT22;27407;24.142;-110.310;2023-07-09T12:35:58;29.30;99.90
41722;DHT22;27407;24.142;-110.310;2023-07-09T12:38:31;29.20;99.90
41722;DHT22;27407;24.142;-110.310;2023-07-09T12:41:00;29.20;99.90
41722;DHT22;27407;24.142;-110.310;2023-07-09T12:43:30;29.20;99.90
41722;DHT22;27407;24.142;-110.310;2023-07-09T12:45:59;29.20;99.90
41722;DHT22;27407;24.142;-110.310;2023-07-09T12:48:27;29.20;99.90
41722;DHT22;27407;24.142;-110.310;2023-07-09T12:50:56;29.30;99.90
41722;DHT22;27407;24.142;-110.310;2023-07-09T12:53:27;29.30;99.90
41722;DHT22;27407;24.142;-110.310;2023-07-09T12:55:59;29.30;99.90
41722;DHT22;27407;24.142;-110.310;2023-07-09T12:58:32;29.30;99.90
41722;DHT22;27407;24.142;-110.310;2023-07-09T13:01:04;29.30;99.90
41722;DHT22;27407;24.142;-110.310;2023-07-09T13:03:40;29.30;99.90
41722;DHT22;27407;24.142;-110.310;2023-07-09T13:06:26;29.20;99.90
41722;DHT22;27407;24.142;-110.310;2023-07-09T13:08:56;29.30;99.90
41722;DHT22;27407;24.142;-110.310;2023-07-09T13:11:24;29.20;99.90
41722;DHT22;27407;24.142;-110.310;2023-07-09T13:13:59;29.30;99.90
41722;DHT22;27407;24.142;-110.310;2023-07-09T13:16:28;29.30;99.90
41722;DHT22;27407;24.142;-110.310;2023-07-09T13:18:55;29.40;99.90
41722;DHT22;27407;24.142;-110.310;2023-07-09T13:21:22;29.40;99.90
41722;DHT22;27407;24.142;-110.310;2023-07-09T13:23:49;29.50;99.90
41722;DHT22;27407;24.142;-110.310;2023-07-09T13:26:17;29.60;99.90
41722;DHT22;27407;24.142;-110.310;2023-07-09T13:28:44;29.60;99.90
41722;DHT22;27407;24.142;-110.310;2023-07-09T13:31:19;29.60;99.90
41722;DHT22;27407;24.142;-110.310;2023-07-09T13:34:16;29.60;99.90
41722;DHT22;27407;24.142;-110.310;2023-07-09T13:36:44;29.60;99.90
41722;DHT22;27407;24.142;-110.310;2023-07-09T13:39:11;29.60;99.90
41722;DHT22;27407;24.142;-110.310;2023-07-09T13:41:39;29.70;99.90
41722;DHT22;27407;24.142;-110.310;2023-07-09T13:44:13;29.70;99.90
41722;DHT22;27407;24.142;-110.310;2023-07-09T13:46:40;29.70;99.90
41722;DHT22;27407;24.142;-110.310;2023-07-09T13:49:12;29.60;99.90
41722;DHT22;27407;24.142;-110.310;2023-07-09T13:51:41;29.70;99.90
41722;DHT22;27407;24.142;-110.310;2023-07-09T13:54:38;29.70;99.90
41722;DHT22;27407;24.142;-110.310;2023-07-09T13:57:11;29.90;99.90
41722;DHT22;27407;24.142;-110.310;2023-07-09T13:59:38;30.40;99.90
41722;DHT22;27407;24.142;-110.310;2023-07-09T14:02:24;30.30;99.90
41722;DHT22;27407;24.142;-110.310;2023-07-09T14:04:59;30.10;99.90
41722;DHT22;27407;24.142;-110.310;2023-07-09T14:07:30;30.30;99.90
41722;DHT22;27407;24.142;-110.310;2023-07-09T14:09:58;30.60;99.90
41722;DHT22;27407;24.142;-110.310;2023-07-09T14:12:26;30.60;99.90
41722;DHT22;27407;24.142;-110.310;2023-07-09T14:14:54;30.70;99.90
41722;DHT22;27407;24.142;-110.310;2023-07-09T14:17:22;30.90;99.90
41722;DHT22;27407;24.142;-110.310;2023-07-09T14:19:49;31.10;99.90
41722;DHT22;27407;24.142;-110.310;2023-07-09T14:22:32;31.20;99.90
41722;DHT22;27407;24.142;-110.310;2023-07-09T14:25:00;31.50;99.90
41722;DHT22;27407;24.142;-110.310;2023-07-09T14:27:27;31.60;99.90
41722;DHT22;27407;24.142;-110.310;2023-07-09T14:29:54;31.70;99.90
41722;DHT22;27407;24.142;-110.310;2023-07-09T14:32:32;31.90;99.90
41722;DHT22;27407;24.142;-110.310;2023-07-09T14:35:00;32.10;99.90
41722;DHT22;27407;24.142;-110.310;2023-07-09T14:37:27;32.10;99.90
41722;DHT22;27407;24.142;-110.310;2023-07-09T14:39:54;32.20;99.90
41722;DHT22;27407;24.142;-110.310;2023-07-09T14:42:21;32.30;99.90
41722;DHT22;27407;24.142;-110.310;2023-07-09T14:44:49;32.40;99.90
41722;DHT22;27407;24.142;-110.310;2023-07-09T14:47:20;32.50;99.90
41722;DHT22;27407;24.142;-110.310;2023-07-09T14:49:47;32.50;99.90
41722;DHT22;27407;24.142;-110.310;2023-07-09T14:52:16;32.60;99.90
41722;DHT22;27407;24.142;-110.310;2023-07-09T14:54:45;32.50;99.90
41722;DHT22;27407;24.142;-110.310;2023-07-09T14:57:25;32.50;99.90
41722;DHT22;27407;24.142;-110.310;2023-07-09T14:59:53;32.70;99.90
41722;DHT22;27407;24.142;-110.310;2023-07-09T15:04:52;32.70;99.90
41722;DHT22;27407;24.142;-110.310;2023-07-09T15:07:18;32.70;99.90
41722;DHT22;27407;24.142;-110.310;2023-07-09T15:09:45;32.60;99.90
41722;DHT22;27407;24.142;-110.310;2023-07-09T15:12:19;32.80;99.90
41722;DHT22;27407;24.142;-110.310;2023-07-09T15:14:46;32.90;99.90
41722;DHT22;27407;24.142;-110.310;2023-07-09T15:17:13;32.80;99.90
41722;DHT22;27407;24.142;-110.310;2023-07-09T15:19:40;32.40;99.90
41722;DHT22;27407;24.142;-110.310;2023-07-09T15:22:19;32.20;99.90
41722;DHT22;27407;24.142;-110.310;2023-07-09T15:24:51;32.20;99.90
41722;DHT22;27407;24.142;-110.310;2023-07-09T15:27:17;32.30;99.90
41722;DHT22;27407;24.142;-110.310;2023-07-09T15:29:53;32.30;99.90
41722;DHT22;27407;24.142;-110.310;2023-07-09T15:32:20;32.40;99.90
41722;DHT22;27407;24.142;-110.310;2023-07-09T15:34:47;32.60;99.90
41722;DHT22;27407;24.142;-110.310;2023-07-09T15:37:16;32.90;99.90
41722;DHT22;27407;24.142;-110.310;2023-07-09T15:39:43;33.10;99.90
41722;DHT22;27407;24.142;-110.310;2023-07-09T15:42:12;33.50;99.90
41722;DHT22;27407;24.142;-110.310;2023-07-09T15:44:46;33.80;99.90
41722;DHT22;27407;24.142;-110.310;2023-07-09T15:47:22;34.40;99.90